Latest Weather Observations for Coolangatta

IDQ60901

Issued at 4:41 pm EST Friday 23 August 2019 (issued every 10 minutes, with the page automatically refreshed every 10 minutes)

About weather observations | Map of Brisbane area stations | Latest observations for Brisbane area | Other Formats
Station Details ID: 040717 Name: COOLANGATTA Lat: -28.17 Lon: 153.51 Height: 4.0 m
Data from the previous 72 hours. | See also: Recent months at Coolangatta
Date/Time
EST
Temp
°C
App
Temp
°C
Dew
Point
°C
Rel
Hum
%
Delta-T
°C
Wind Press
QNH
hPa
Press
MSL
hPa
Rain since
9am
mm
Dir  Spd
km/h
Gust
km/h
Spd
kts
Gust
kts
23/04:30pm 18.3 13.1 8.8 54 4.9 SE 26 39 14 21 1023.3 1023.3 0.0
23/04:00pm 19.0 13.7 8.6 51 5.4 SE 26 37 14 20 1023.0 1023.0 0.0
23/03:30pm 19.5 14.2 8.5 49 5.7 SSE 26 33 14 18 1022.9 1022.9 0.0
23/03:00pm 20.3 15.4 8.6 47 6.1 SE 24 32 13 17 1022.8 1022.8 0.0
23/02:30pm 20.7 15.6 7.7 43 6.7 SSE 24 37 13 20 1022.7 1022.7 0.0
23/02:00pm 20.8 15.8 8.1 44 6.6 SSE 24 35 13 19 1022.7 1022.7 0.0
23/01:30pm 21.2 15.7 7.4 41 7.1 SSE 26 35 14 19 1022.9 1022.9 0.0
23/01:00pm 20.8 16.2 6.7 40 7.1 SSE 20 28 11 15 1023.1 1023.1 0.0
23/12:30pm 20.2 14.8 6.2 40 7.0 SSE 24 37 13 20 1023.5 1023.5 0.0
23/12:00pm 20.5 16.0 6.8 41 6.9 SSW 20 30 11 16 1023.8 1023.8 0.0
23/11:30am 19.7 14.8 6.8 43 6.5 S 22 30 12 16 1024.3 1024.3 0.0
23/11:00am 19.0 13.9 6.2 43 6.3 SSW 22 35 12 19 1024.7 1024.7 0.0
23/10:30am 18.3 12.7 5.2 42 6.3 S 24 33 13 18 1024.9 1024.9 0.0
23/10:00am 17.9 13.1 5.5 44 6.0 SW 20 28 11 15 1025.0 1025.0 0.0
23/09:30am 17.1 12.5 5.4 46 5.6 S 19 26 10 14 1024.8 1024.8 0.0
23/09:00am 16.5 12.6 5.2 47 5.4 SW 15 22 8 12 1024.7 1024.7 0.0
23/08:30am 15.1 11.4 4.2 48 5.0 SW 13 20 7 11 1024.5 1024.5 0.0
23/08:00am 14.8 10.7 4.2 49 4.9 SW 15 26 8 14 1024.1 1024.1 0.0
23/07:30am 14.1 10.4 4.4 52 4.5 SW 13 20 7 11 1023.4 1023.4 0.0
23/07:00am 13.6 9.5 4.5 54 4.2 SW 15 20 8 11 1022.8 1022.8 0.0
23/06:30am 13.7 9.7 5.1 56 4.0 SW 15 20 8 11 1022.2 1022.2 0.0
23/06:00am 13.6 9.3 5.3 57 3.9 SW 17 26 9 14 1021.6 1021.6 0.0
23/05:30am 14.1 9.7 4.9 54 4.3 SSW 17 24 9 13 1021.1 1021.1 0.0
23/05:00am 14.3 10.5 5.9 57 4.0 SW 15 26 8 14 1020.8 1020.8 0.0
23/04:30am 14.1 10.2 7.2 63 3.4 SW 17 20 9 11 1020.3 1020.3 0.0
23/04:00am 14.4 11.4 7.7 64 3.3 SW 13 24 7 13 1019.9 1019.9 0.0
23/03:30am 14.6 11.5 8.8 68 2.9 SSW 15 22 8 12 1019.7 1019.7 0.0
23/03:00am 14.9 12.0 9.7 71 2.7 SSW 15 28 8 15 1019.6 1019.6 0.0
23/02:30am 14.8 11.9 9.8 72 2.6 SSW 15 24 8 13 1019.6 1019.6 0.0
23/02:00am 15.2 11.5 10.0 71 2.7 SSW 20 30 11 16 1019.4 1019.4 0.0
23/01:30am 15.4 11.6 9.7 69 3.0 SSW 20 30 11 16 1019.3 1019.3 0.0
23/01:00am 15.4 11.6 9.7 69 2.9 SSW 20 32 11 17 1019.3 1019.3 0.0
23/12:30am 15.8 12.3 10.1 69 3.0 S 19 26 10 14 1019.5 1019.5 0.0
23/12:00am 15.8 12.3 10.3 70 2.9 S 19 22 10 12 1019.5 1019.5 0.0
 
Date/Time
EST
Temp
°C
App
Temp
°C
Dew
Point
°C
Rel
Hum
%
Delta-T
°C
Wind Press
QNH
hPa
Press
MSL
hPa
Rain since
9am
mm
Dir  Spd
km/h
Gust
km/h
Spd
kts
Gust
kts
22/11:30pm 16.1 12.7 10.4 69 3.0 SSW 19 26 10 14 1019.4 1019.4 0.0
22/11:00pm 16.2 12.2 10.5 69 3.0 S 22 35 12 19 1019.4 1019.4 0.0
22/10:30pm 16.2 12.3 10.9 71 2.8 S 22 32 12 17 1019.1 1019.1 0.0
22/10:00pm 16.5 12.3 11.0 70 2.9 S 24 32 13 17 1019.1 1019.1 0.0
22/09:30pm 16.9 12.6 10.7 67 3.3 S 24 39 13 21 1018.6 1018.6 0.0
22/09:00pm 17.1 13.7 11.2 68 3.2 S 20 32 11 17 1018.5 1018.5 0.0
22/08:30pm 17.3 12.5 11.8 70 3.0 SSE 28 43 15 23 1017.9 1017.9 0.0
22/08:08pm 17.9 12.3 12.1 69 3.2 SSE 33 52 18 28 1017.5 1017.5 0.0
22/08:00pm 18.0 12.0 12.2 69 3.2 SSE 35 52 19 28 1017.3 1017.3 0.0
22/07:47pm 18.6 15.0 11.9 65 3.7 SSE 22 39 12 21 1016.8 1016.8 0.0
22/07:30pm 17.4 15.1 10.5 64 3.7 SSE 13 19 7 10 1016.2 1016.2 0.0
22/07:00pm 17.1 15.1 11.4 69 3.1 SSE 13 17 7 9 1015.3 1015.3 0.0
22/06:30pm 18.3 15.4 10.9 62 4.0 SSE 17 24 9 13 1014.1 1014.1 0.0
22/06:00pm 17.9 16.9 10.3 61 4.1 SSW 6 13 3 7 1012.7 1012.7 0.0
22/05:30pm 19.7 18.4 10.1 54 5.2 ENE 7 13 4 7 1012.0 1012.0 0.0
22/05:00pm 20.6 18.5 11.0 54 5.3 ENE 13 19 7 10 1010.9 1010.9 0.0
22/04:30pm 21.6 18.8 8.5 43 6.9 ENE 13 22 7 12 1010.3 1010.3 0.0
22/04:00pm 21.9 17.6 7.7 40 7.4 ENE 20 24 11 13 1009.7 1009.7 0.0
22/03:30pm 22.6 19.1 8.7 41 7.4 ENE 17 24 9 13 1009.6 1009.6 0.0
22/03:00pm 23.2 18.6 6.5 34 8.6 E 20 26 11 14 1009.3 1009.3 0.0
22/02:30pm 23.4 19.3 6.2 33 8.8 ENE 17 22 9 12 1009.1 1009.1 0.0
22/02:00pm 23.7 19.0 6.0 32 9.0 ENE 20 26 11 14 1009.0 1009.0 0.0
22/01:30pm 23.6 19.4 5.5 31 9.1 ENE 17 20 9 11 1009.4 1009.4 0.0
22/01:00pm 23.6 18.8 2.4 25 10.1 NE 17 20 9 11 1009.7 1009.7 0.0
22/12:30pm 23.2 17.3 1.5 24 10.1 NE 22 28 12 15 1009.9 1009.9 0.0
22/12:00pm 23.9 18.4 0.3 21 10.8 NE 19 24 10 13 1010.7 1010.7 0.0
22/11:30am 23.8 19.8 0.2 21 10.8 NNE 11 22 6 12 1011.5 1011.5 0.0
22/11:00am 23.5 18.9 -0.7 20 10.9 SW 13 20 7 11 1012.5 1012.5 0.0
22/10:30am 22.4 16.4 -1.6 20 10.5 SSW 20 32 11 17 1013.0 1013.0 0.0
22/10:16am 22.8 16.2 -0.6 21 10.5 SSW 24 39 13 21 1013.4 1013.4 0.0
22/10:00am 22.9 18.2 -1.9 19 10.8 SW 13 19 7 10 1013.2 1013.2 0.0
22/09:30am 21.5 17.9 2.7 29 8.9 NW 11 17 6 9 1013.3 1013.3 0.0
22/09:00am 20.5 17.4 3.7 33 8.0 N 9 19 5 10 1013.7 1013.7 0.0
22/08:30am 18.1 15.9 5.3 43 6.2 NNW 6 11 3 6 1014.3 1014.3 0.0
22/08:00am 14.9 12.2 3.7 47 5.1 SSW 7 9 4 5 1014.3 1014.3 0.0
22/07:30am 13.3 12.2 5.0 57 3.8 CALM 0 6 0 3 1014.0 1014.0 0.0
22/07:00am 10.7 8.0 3.7 62 3.1 NNW 7 11 4 6 1014.0 1014.0 0.0
22/06:30am 7.7 3.4 3.0 72 2.0 WSW 15 17 8 9 1014.2 1014.2 0.0
22/06:00am 7.1 3.9 3.0 75 1.7 WSW 9 13 5 7 1014.0 1014.0 0.0
22/05:30am 6.9 4.2 2.6 74 1.8 WSW 6 9 3 5 1014.2 1014.2 0.0
22/05:00am 8.2 5.5 3.9 74 1.9 WSW 7 13 4 7 1014.3 1014.3 0.0
22/04:30am 7.5 5.3 3.4 75 1.7 NW 4 11 2 6 1014.2 1014.2 0.0
22/04:00am 7.9 5.6 3.0 71 2.1 N 4 9 2 5 1014.3 1014.3 0.0
22/03:30am 9.5 6.7 3.3 65 2.7 NW 7 11 4 6 1014.4 1014.4 0.0
22/03:00am 7.4 4.9 4.0 79 1.5 WSW 6 9 3 5 1014.5 1014.5 0.0
22/02:30am 6.8 4.8 2.1 72 1.9 W 2 6 1 3 1014.6 1014.6 0.0
22/02:00am 8.8 5.2 3.0 67 2.5 NNW 11 13 6 7 1014.7 1014.7 0.0
22/01:30am 9.2 5.5 4.4 72 2.1 WSW 13 19 7 10 1014.7 1014.7 0.0
22/01:00am 9.1 5.8 4.7 74 2.0 WSW 11 15 6 8 1014.7 1014.7 0.0
22/12:30am 10.2 8.0 6.4 77 1.8 SSW 7 9 4 5 1014.8 1014.8 0.0
22/12:00am 10.1 7.4 5.5 73 2.1 WSW 9 15 5 8 1015.1 1015.1 0.0
 
Date/Time
EST
Temp
°C
App
Temp
°C
Dew
Point
°C
Rel
Hum
%
Delta-T
°C
Wind Press
QNH
hPa
Press
MSL
hPa
Rain since
9am
mm
Dir  Spd
km/h
Gust
km/h
Spd
kts
Gust
kts
21/11:30pm 9.3 7.3 7.1 86 1.0 SW 7 9 4 5 1015.3 1015.3 0.0
21/11:00pm 8.8 6.8 4.4 74 1.9 WNW 4 11 2 6 1015.2 1015.2 0.0
21/10:30pm 8.7 5.9 5.1 78 1.6 N 9 13 5 7 1015.3 1015.3 0.0
21/10:00pm 9.1 7.6 5.1 76 1.8 WSW 2 7 1 4 1015.4 1015.4 0.0
21/09:30pm 11.0 8.4 6.2 72 2.2 WSW 9 11 5 6 1015.3 1015.3 0.0
21/09:00pm 9.4 7.2 6.1 80 1.5 WSW 7 11 4 6 1015.5 1015.5 0.0
21/08:30pm 11.6 10.7 7.7 77 1.9 WSW 2 7 1 4 1015.5 1015.5 0.0
21/08:00pm 12.6 11.7 7.9 73 2.3 SW 2 7 1 4 1015.4 1015.4 0.0
21/07:30pm 13.1 10.2 8.2 72 2.4 WSW 13 17 7 9 1015.1 1015.1 0.0
21/07:00pm 13.9 12.9 8.9 72 2.5 SW 4 9 2 5 1014.9 1014.9 0.0
21/06:30pm 14.5 12.7 9.3 71 2.7 SW 9 13 5 7 1014.5 1014.5 0.0
21/06:00pm 15.3 13.5 9.4 68 3.0 WSW 9 13 5 7 1014.2 1014.2 0.0
21/05:30pm 16.9 16.6 8.6 58 4.3 CALM 0 0 0 0 1013.9 1013.9 0.0
21/05:00pm 19.9 18.1 9.5 51 5.5 NNE 9 13 5 7 1013.6 1013.6 0.0
21/04:30pm 20.6 18.6 8.6 46 6.3 NNE 9 15 5 8 1013.6 1013.6 0.0
21/04:00pm 21.0 17.8 8.3 44 6.6 NE 15 19 8 10 1013.6 1013.6 0.0
21/03:30pm 21.2 17.4 5.6 36 7.8 NE 15 19 8 10 1014.0 1014.0 0.0
21/03:00pm 21.5 17.4 4.1 32 8.4 NE 15 20 8 11 1014.3 1014.3 0.0
21/02:30pm 20.8 16.2 3.5 32 8.2 NE 17 20 9 11 1014.4 1014.4 0.0
21/02:00pm 21.3 16.6 3.0 30 8.7 NNE 17 22 9 12 1014.6 1014.6 0.0
21/01:30pm 21.1 15.7 1.4 27 9.0 NE 19 22 10 12 1015.0 1015.0 0.0
21/01:00pm 20.6 15.2 1.5 28 8.7 NNE 19 22 10 12 1015.6 1015.6 0.0
21/12:30pm 20.4 15.1 -0.8 24 9.2 NNE 17 20 9 11 1016.1 1016.1 0.0
21/12:00pm 20.3 15.7 1.7 29 8.5 NNE 15 20 8 11 1016.9 1016.9 0.0
21/11:30am 19.4 14.9 2.3 32 7.9 NNE 15 20 8 11 1017.4 1017.4 0.0
21/11:00am 19.5 15.1 2.8 33 7.7 NNE 15 17 8 9 1017.9 1017.9 0.0
21/10:30am 19.1 15.3 2.0 32 7.8 NNE 11 13 6 7 1018.4 1018.4 0.0
21/10:00am 18.3 14.5 4.1 39 6.7 NNE 13 17 7 9 1018.6 1018.6 0.0
21/09:30am 18.4 15.6 2.3 34 7.3 NE 6 11 3 6 1018.9 1018.9 0.0
21/09:00am 17.7 15.8 6.6 48 5.5 NNE 6 9 3 5 1019.1 1019.1 0.0
21/08:30am 16.2 12.7 1.5 37 6.5 NNE 9 11 5 6 1019.1 1019.1 0.0
21/08:00am 12.9 11.2 4.1 55 4.0 S 2 7 1 4 1019.4 1019.4 0.0
21/07:30am 9.4 6.7 2.9 64 2.8 WNW 6 9 3 5 1018.9 1018.9 0.0
21/07:00am 5.9 3.5 2.2 77 1.5 SW 4 7 2 4 1019.0 1019.0 0.0
21/06:30am 4.5 1.6 1.5 81 1.2 SW 6 7 3 4 1019.0 1019.0 0.0
21/06:00am 4.3 2.0 2.5 88 0.7 SW 4 9 2 5 1018.6 1018.6 0.0
21/05:30am 4.1 1.2 2.5 89 0.6 SW 7 9 4 5 1018.6 1018.6 0.0
21/05:00am 5.2 2.7 3.5 89 0.7 SW 6 9 3 5 1018.5 1018.5 0.0
21/04:30am 3.8 0.7 1.2 83 1.0 WSW 7 11 4 6 1018.3 1018.3 0.0
21/04:00am 4.3 2.2 2.0 85 0.9 WSW 2 7 1 4 1018.5 1018.5 0.0
21/03:30am 4.5 2.4 1.4 80 1.2 WSW 2 6 1 3 1018.9 1018.9 0.0
21/03:00am 5.4 3.2 3.4 87 0.8 SW 4 9 2 5 1019.1 1019.1 0.0
21/02:30am 6.6 4.9 3.8 82 1.2 SW 2 7 1 4 1019.5 1019.5 0.0
21/02:00am 7.0 4.7 5.0 87 0.9 WSW 6 7 3 4 1019.8 1019.8 0.0
21/01:30am 6.3 3.7 4.3 87 0.9 WSW 7 9 4 5 1020.1 1020.1 0.0
21/01:00am 7.0 5.6 3.6 79 1.4 CALM 0 0 0 0 1020.5 1020.5 0.0
21/12:30am 7.2 4.5 3.8 79 1.5 WSW 7 11 4 6 1020.8 1020.8 0.0
21/12:00am 9.3 6.9 5.3 76 1.8 W 7 9 4 5 1020.9 1020.9 0.0
 
Date/Time
EST
Temp
°C
App
Temp
°C
Dew
Point
°C
Rel
Hum
%
Delta-T
°C
Wind Press
QNH
hPa
Press
MSL
hPa
Rain since
9am
mm
Dir  Spd
km/h
Gust
km/h
Spd
kts
Gust
kts
20/11:30pm 11.4 7.6 3.9 60 3.3 WNW 13 17 7 9 1021.0 1021.0 0.0
20/11:00pm 10.9 7.5 4.1 63 3.0 WNW 11 13 6 7 1021.5 1021.5 0.0
20/10:30pm 9.9 6.9 4.3 68 2.5 WNW 9 13 5 7 1021.7 1021.7 0.0
20/10:00pm 9.3 6.5 5.1 75 1.9 W 9 13 5 7 1022.0 1022.0 0.0
20/09:30pm 7.5 4.1 4.1 79 1.5 W 11 15 6 8 1022.1 1022.1 0.0
20/09:00pm 8.6 5.2 5.7 82 1.3 WSW 13 13 7 7 1022.3 1022.3 0.0
20/08:30pm 8.1 4.7 4.1 76 1.7 WSW 11 13 6 7 1022.3 1022.3 0.0
20/08:00pm 8.8 5.9 4.6 75 1.8 WSW 9 11 5 6 1022.3 1022.3 0.0
20/07:30pm 9.7 6.8 4.7 71 2.2 WSW 9 11 5 6 1022.4 1022.4 0.0
20/07:00pm 10.1 7.5 4.0 66 2.7 WSW 7 9 4 5 1022.3 1022.3 0.0
20/06:30pm 11.1 8.6 4.6 64 2.9 WNW 7 9 4 5 1022.2 1022.2 0.0
20/06:00pm 11.9 9.1 3.2 55 3.8 NNW 7 9 4 5 1021.9 1021.9 0.0
20/05:30pm 14.7 11.0 2.6 44 5.4 N 11 13 6 7 1021.7 1021.7 0.0
20/05:00pm 17.0 13.7 2.2 37 6.6 NNE 9 13 5 7 1021.6 1021.6 0.0

Latest Capital City Observations: Canberra | Sydney | Melbourne | Brisbane | Adelaide | Perth | Hobart | Darwin

Other formats

Comma delimited format used in spreadsheet applications
http://www.bom.gov.au/fwo/IDQ60901/IDQ60901.94592.axf

JavaScript Object Notation format (JSON) in row-major order
http://www.bom.gov.au/fwo/IDQ60901/IDQ60901.94592.json

Data quality

Most of these data are generated automatically and are frequently updated. Quality checks on data are not normally performed. It is possible for incorrect values to appear. Refer to information at About Latest Weather Observations and please check the disclaimer before using these data.